createdAt,value
2022-10-06T00:01:08.335Z,4.17
2022-10-06T00:03:37.548Z,4.30
2022-10-06T00:06:05.196Z,6.43
2022-10-06T00:08:34.112Z,4.90
2022-10-06T00:11:01.182Z,2.30
2022-10-06T00:13:29.213Z,2.60
2022-10-06T00:15:56.139Z,4.77
2022-10-06T00:18:22.828Z,4.17
2022-10-06T00:20:57.092Z,1.90
2022-10-06T00:23:24.358Z,2.10
2022-10-06T00:25:51.087Z,3.07
2022-10-06T00:28:17.817Z,5.20
2022-10-06T00:30:46.058Z,4.73
2022-10-06T00:33:16.076Z,5.03
2022-10-06T00:35:43.752Z,1.80
2022-10-06T00:38:12.991Z,1.23
2022-10-06T00:40:49.699Z,1.70
2022-10-06T00:43:38.265Z,4.50
2022-10-06T00:46:05.231Z,1.37
2022-10-06T00:48:32.306Z,2.07
2022-10-06T00:50:59.451Z,6.80
2022-10-06T00:53:30.908Z,4.47
2022-10-06T00:55:57.773Z,10.43
2022-10-06T00:58:25.305Z,4.67
2022-10-06T01:00:54.504Z,4.83
2022-10-06T01:03:35.143Z,4.70
2022-10-06T01:06:03.583Z,6.23
2022-10-06T01:08:32.365Z,7.40
2022-10-06T01:10:59.271Z,4.37
2022-10-06T01:13:30.432Z,2.40
2022-10-06T01:16:22.489Z,7.13
2022-10-06T01:18:49.503Z,6.33
2022-10-06T01:21:29.840Z,5.93
2022-10-06T01:23:57.197Z,9.00
2022-10-06T01:26:27.012Z,5.73
2022-10-06T01:28:53.922Z,6.50
2022-10-06T01:31:20.901Z,7.53
2022-10-06T01:33:54.590Z,10.27
2022-10-06T01:36:21.717Z,3.87
2022-10-06T01:38:50.591Z,2.93
2022-10-06T01:41:17.374Z,6.27
2022-10-06T01:43:44.023Z,4.40
2022-10-06T01:46:10.822Z,6.77
2022-10-06T01:48:37.533Z,5.23
2022-10-06T01:51:04.307Z,5.53
2022-10-06T01:53:31.024Z,4.13
2022-10-06T01:55:59.762Z,5.47
2022-10-06T01:58:28.433Z,6.03
2022-10-06T02:00:55.469Z,9.53
2022-10-06T02:03:48.241Z,2.90
2022-10-06T02:06:14.927Z,4.90
2022-10-06T02:08:43.780Z,5.03
2022-10-06T02:11:12.006Z,6.27
2022-10-06T02:13:41.826Z,14.57
2022-10-06T02:16:09.432Z,10.20
2022-10-06T02:18:36.602Z,5.67
2022-10-06T02:21:03.815Z,8.60
2022-10-06T02:23:31.186Z,6.60
2022-10-06T02:26:02.987Z,5.50
2022-10-06T02:28:31.556Z,10.67
2022-10-06T02:31:07.136Z,13.13
2022-10-06T02:33:36.013Z,8.40
2022-10-06T02:36:05.420Z,6.13
2022-10-06T02:38:32.858Z,9.07
2022-10-06T02:41:01.872Z,5.30
2022-10-06T02:43:31.726Z,10.37
2022-10-06T02:46:06.892Z,8.60
2022-10-06T02:48:34.936Z,5.73
2022-10-06T02:51:08.777Z,6.83
2022-10-06T02:53:37.158Z,6.63
2022-10-06T02:56:06.787Z,5.80
2022-10-06T02:58:34.050Z,9.17
2022-10-06T03:01:11.730Z,10.80
2022-10-06T03:03:38.639Z,6.53
2022-10-06T03:06:21.586Z,6.97
2022-10-06T03:09:01.998Z,6.93
2022-10-06T03:11:32.960Z,9.53
2022-10-06T03:14:00.097Z,10.67
2022-10-06T03:16:35.374Z,7.13
2022-10-06T03:19:03.571Z,10.30
2022-10-06T03:21:33.663Z,4.93
2022-10-06T03:24:01.112Z,11.83
2022-10-06T03:26:32.852Z,10.17
2022-10-06T03:29:03.909Z,7.83
2022-10-06T03:31:32.529Z,14.50
2022-10-06T03:33:59.487Z,7.73
2022-10-06T03:36:32.200Z,12.43
2022-10-06T03:39:00.887Z,7.00
2022-10-06T03:41:30.235Z,10.10
2022-10-06T03:43:58.614Z,8.40
2022-10-06T03:46:29.291Z,10.00
2022-10-06T03:48:57.321Z,4.87
2022-10-06T03:51:27.646Z,12.13
2022-10-06T03:53:56.104Z,7.37
2022-10-06T03:56:26.028Z,9.13
2022-10-06T03:58:55.056Z,5.77
2022-10-06T04:01:26.714Z,8.90
2022-10-06T04:03:55.323Z,12.13
2022-10-06T04:06:23.756Z,11.87
2022-10-06T04:08:52.157Z,9.17
2022-10-06T04:11:23.191Z,16.30
2022-10-06T04:13:57.964Z,11.20
2022-10-06T04:16:29.062Z,7.23
2022-10-06T04:18:58.089Z,13.80
2022-10-06T04:21:26.164Z,14.43
2022-10-06T04:23:55.839Z,9.77
2022-10-06T04:26:25.669Z,10.13
2022-10-06T04:28:52.796Z,18.70
2022-10-06T04:31:22.305Z,6.33
2022-10-06T04:33:54.790Z,7.40
2022-10-06T04:36:27.663Z,9.50
2022-10-06T04:38:58.257Z,8.37
2022-10-06T04:41:33.170Z,9.07
2022-10-06T04:44:00.864Z,13.60
2022-10-06T04:46:45.417Z,11.03
2022-10-06T04:49:19.141Z,12.40
2022-10-06T04:51:48.351Z,10.30
2022-10-06T04:54:15.294Z,13.90
2022-10-06T04:56:42.146Z,10.67
2022-10-06T04:59:09.802Z,14.37
2022-10-06T05:01:38.761Z,11.33
2022-10-06T05:04:09.610Z,8.47
2022-10-06T05:06:39.682Z,6.40
2022-10-06T05:09:12.078Z,11.80
2022-10-06T05:11:43.195Z,13.00
2022-10-06T05:14:12.752Z,6.87
2022-10-06T05:16:43.477Z,6.87
2022-10-06T05:19:11.653Z,11.60
2022-10-06T05:21:40.748Z,10.07
2022-10-06T05:24:10.132Z,12.00
2022-10-06T05:26:37.567Z,9.50
2022-10-06T05:29:07.766Z,7.97
2022-10-06T05:31:41.012Z,7.10
2022-10-06T05:34:07.824Z,12.17
2022-10-06T05:36:35.571Z,14.63
2022-10-06T05:39:03.090Z,10.10
2022-10-06T05:41:41.456Z,10.80
2022-10-06T05:44:10.609Z,5.53
2022-10-06T05:46:39.387Z,9.43
2022-10-06T05:49:10.166Z,12.47
2022-10-06T05:51:42.288Z,8.00
2022-10-06T05:54:16.836Z,9.03
2022-10-06T05:56:44.120Z,9.23
2022-10-06T05:59:11.425Z,10.73
2022-10-06T06:01:40.470Z,10.17
2022-10-06T06:04:14.211Z,11.50
2022-10-06T06:06:50.458Z,9.83
2022-10-06T06:09:21.467Z,9.30
2022-10-06T06:11:52.879Z,10.33
2022-10-06T06:15:00.858Z,15.20
2022-10-06T06:17:33.795Z,11.50
2022-10-06T06:20:03.068Z,8.80
2022-10-06T06:22:29.978Z,14.17
2022-10-06T06:24:56.617Z,13.53
2022-10-06T06:27:24.072Z,12.20
2022-10-06T06:29:50.731Z,14.03
2022-10-06T06:32:17.361Z,18.87
2022-10-06T06:34:44.727Z,14.53
2022-10-06T06:37:15.094Z,16.80
2022-10-06T06:39:42.324Z,10.43
2022-10-06T06:42:09.234Z,10.03
2022-10-06T06:44:51.439Z,17.23
2022-10-06T06:47:39.654Z,10.60
2022-10-06T06:50:10.139Z,9.20
2022-10-06T06:52:38.594Z,10.77
2022-10-06T06:55:07.319Z,11.27
2022-10-06T06:57:34.009Z,12.87
2022-10-06T07:00:02.612Z,14.43
2022-10-06T07:02:30.520Z,12.70
2022-10-06T07:04:57.489Z,14.93
2022-10-06T07:07:24.190Z,13.43
2022-10-06T07:09:51.445Z,12.33
2022-10-06T07:12:20.707Z,10.60
2022-10-06T07:15:11.307Z,13.80
2022-10-06T07:17:59.338Z,12.13
2022-10-06T07:20:44.724Z,19.40
2022-10-06T07:23:36.404Z,17.80
2022-10-06T07:26:06.039Z,16.47
2022-10-06T07:28:33.043Z,12.00
2022-10-06T07:31:00.725Z,15.30
2022-10-06T07:33:31.108Z,12.60
2022-10-06T07:35:57.804Z,14.27
2022-10-06T07:38:25.930Z,20.00
2022-10-06T07:41:17.795Z,15.03
2022-10-06T07:43:42.841Z,10.53
2022-10-06T07:46:11.317Z,15.37
2022-10-06T07:48:49.481Z,13.13
2022-10-06T07:51:18.699Z,15.90
2022-10-06T07:53:50.740Z,13.60
2022-10-06T07:56:28.031Z,12.87
2022-10-06T07:58:58.488Z,14.37
2022-10-06T08:01:27.338Z,16.60
2022-10-06T08:03:54.205Z,14.47
2022-10-06T08:06:23.502Z,12.80
2022-10-06T08:08:53.247Z,26.77
2022-10-06T08:11:21.526Z,12.23
2022-10-06T08:13:48.328Z,15.20
2022-10-06T08:16:18.346Z,12.87
2022-10-06T08:18:50.818Z,13.20
2022-10-06T08:21:19.896Z,12.60
2022-10-06T08:23:48.418Z,10.53
2022-10-06T08:26:16.759Z,17.20
2022-10-06T08:28:45.847Z,12.73
2022-10-06T08:31:12.799Z,16.43
2022-10-06T08:33:39.917Z,11.60
2022-10-06T08:36:08.663Z,17.20
2022-10-06T08:38:38.716Z,17.07
2022-10-06T08:41:27.308Z,13.17
2022-10-06T08:44:04.871Z,17.07
2022-10-06T08:47:03.274Z,11.90
2022-10-06T08:49:38.358Z,13.43
2022-10-06T08:52:37.282Z,12.07
2022-10-06T08:55:27.858Z,11.03
2022-10-06T08:58:19.799Z,19.67
2022-10-06T09:00:46.451Z,14.97
2022-10-06T09:03:23.828Z,13.57
2022-10-06T09:06:00.863Z,13.50
2022-10-06T09:08:52.398Z,17.83
2022-10-06T09:11:40.296Z,10.57
2022-10-06T09:14:17.320Z,12.77
2022-10-06T09:16:50.235Z,12.30
2022-10-06T09:19:26.297Z,10.27
2022-10-06T09:21:54.559Z,13.77
2022-10-06T09:24:33.106Z,6.40
2022-10-06T09:27:00.254Z,7.63
2022-10-06T09:29:31.670Z,7.27
2022-10-06T09:31:59.132Z,14.43
2022-10-06T09:34:44.609Z,9.00
2022-10-06T09:37:13.494Z,7.07
2022-10-06T09:39:42.738Z,18.07
2022-10-06T09:42:29.588Z,13.97
2022-10-06T09:45:16.198Z,12.03
2022-10-06T09:47:46.013Z,14.97
2022-10-06T09:50:26.091Z,13.67
2022-10-06T09:53:00.513Z,17.63
2022-10-06T09:55:38.537Z,14.70
2022-10-06T09:58:24.010Z,12.30
2022-10-06T10:01:02.562Z,9.73
2022-10-06T10:04:15.474Z,13.50
2022-10-06T10:06:40.095Z,9.77
2022-10-06T10:09:14.672Z,10.20
2022-10-06T10:12:01.945Z,9.70
2022-10-06T10:14:37.595Z,7.00
2022-10-06T10:17:14.671Z,10.57
2022-10-06T10:19:44.999Z,6.70
2022-10-06T10:22:30.905Z,10.23
2022-10-06T10:25:38.383Z,4.03
2022-10-06T10:28:10.826Z,11.50
2022-10-06T10:30:49.930Z,5.83
2022-10-06T10:33:30.064Z,9.43
2022-10-06T10:35:58.712Z,7.73
2022-10-06T10:38:40.796Z,8.07
2022-10-06T10:41:12.353Z,12.83
2022-10-06T10:43:47.996Z,5.10
2022-10-06T10:46:16.509Z,8.37
2022-10-06T10:48:49.618Z,9.87
2022-10-06T10:51:32.869Z,12.80
2022-10-06T10:54:05.848Z,9.00
2022-10-06T10:56:33.573Z,8.40
2022-10-06T10:59:15.104Z,7.93
2022-10-06T11:01:49.984Z,9.13
2022-10-06T11:04:16.849Z,11.97
2022-10-06T11:07:05.327Z,10.27
2022-10-06T11:09:40.629Z,8.67
2022-10-06T11:12:39.472Z,9.77
2022-10-06T11:15:26.978Z,8.60
2022-10-06T11:18:01.018Z,7.00
2022-10-06T11:20:48.526Z,7.50
2022-10-06T11:23:34.032Z,8.63
2022-10-06T11:26:17.856Z,15.37
2022-10-06T11:28:50.454Z,6.30
2022-10-06T11:31:32.966Z,6.53
2022-10-06T11:34:01.810Z,4.87
2022-10-06T11:36:39.398Z,12.80
2022-10-06T11:39:37.479Z,7.63
2022-10-06T11:42:25.870Z,7.87
2022-10-06T11:45:05.986Z,6.27
2022-10-06T11:47:53.361Z,5.90
2022-10-06T11:50:42.564Z,5.00
2022-10-06T11:53:37.209Z,7.10
2022-10-06T11:56:19.248Z,3.40
2022-10-06T11:58:52.037Z,7.63
2022-10-06T12:01:31.025Z,6.50
2022-10-06T12:04:09.670Z,7.13
2022-10-06T12:06:42.673Z,6.40
2022-10-06T12:09:33.455Z,5.40
2022-10-06T12:12:20.850Z,7.43
2022-10-06T12:17:43.776Z,7.23
2022-10-06T12:20:42.251Z,4.70
2022-10-06T12:23:08.849Z,7.43
2022-10-06T12:25:51.277Z,8.90
2022-10-06T12:28:36.330Z,11.40
2022-10-06T12:31:28.167Z,5.40
2022-10-06T12:33:55.170Z,8.90
2022-10-06T12:36:31.380Z,7.30
2022-10-06T12:39:04.917Z,10.23
2022-10-06T12:41:56.586Z,5.07
2022-10-06T12:44:37.177Z,11.47
2022-10-06T12:47:25.155Z,8.27
2022-10-06T12:50:01.028Z,6.73
2022-10-06T12:52:46.065Z,7.03
2022-10-06T12:55:40.931Z,8.53
2022-10-06T12:58:30.934Z,4.53
2022-10-06T13:01:25.769Z,6.20
2022-10-06T13:03:53.503Z,5.63
2022-10-06T13:06:25.090Z,12.83
2022-10-06T13:09:13.030Z,8.30
2022-10-06T13:11:39.687Z,6.77
2022-10-06T13:14:14.087Z,7.00
2022-10-06T13:16:44.668Z,9.70
2022-10-06T13:19:17.444Z,5.23
2022-10-06T13:21:44.587Z,6.33
2022-10-06T13:24:20.360Z,8.50
2022-10-06T13:26:48.020Z,4.53
2022-10-06T13:29:19.467Z,5.33
2022-10-06T13:31:52.590Z,5.23
2022-10-06T13:34:29.228Z,4.40
2022-10-06T13:36:57.767Z,10.23
2022-10-06T13:39:26.821Z,6.30
2022-10-06T13:42:08.530Z,9.73
2022-10-06T13:44:42.625Z,10.40
2022-10-06T13:47:21.258Z,8.37
2022-10-06T13:49:56.738Z,5.03
2022-10-06T13:52:38.951Z,8.13
2022-10-06T13:55:24.657Z,3.70
2022-10-06T13:58:04.850Z,5.20
2022-10-06T14:00:48.589Z,6.00
2022-10-06T14:03:23.205Z,6.27
2022-10-06T14:05:51.081Z,4.70
2022-10-06T14:08:24.338Z,4.03
2022-10-06T14:10:55.245Z,4.23
2022-10-06T14:13:23.080Z,5.17
2022-10-06T14:16:02.055Z,8.50
2022-10-06T14:18:39.896Z,6.90
2022-10-06T14:21:28.703Z,10.43
2022-10-06T14:23:55.831Z,6.90
2022-10-06T14:26:28.609Z,7.43
2022-10-06T14:28:56.139Z,10.43
2022-10-06T14:31:24.953Z,9.00
2022-10-06T14:33:53.209Z,5.70
2022-10-06T14:36:23.120Z,9.63
2022-10-06T14:38:51.422Z,4.30
2022-10-06T14:41:19.544Z,5.20
2022-10-06T14:43:47.369Z,2.83
2022-10-06T14:46:15.364Z,5.27
2022-10-06T14:48:42.066Z,5.00
2022-10-06T14:51:09.452Z,5.77
2022-10-06T14:53:39.235Z,6.37
2022-10-06T14:56:10.319Z,5.47
2022-10-06T14:58:43.914Z,4.87
2022-10-06T15:01:14.285Z,6.70
2022-10-06T15:03:42.648Z,9.33
2022-10-06T15:06:30.797Z,7.30
2022-10-06T15:08:58.668Z,7.43
2022-10-06T15:11:27.632Z,6.40
2022-10-06T15:13:57.144Z,5.33
2022-10-06T15:16:24.866Z,4.17
2022-10-06T15:18:52.097Z,2.43
2022-10-06T15:21:19.568Z,6.80
2022-10-06T15:23:48.016Z,3.30
2022-10-06T15:26:33.755Z,4.13
2022-10-06T15:29:00.437Z,5.03
2022-10-06T15:31:55.045Z,9.53
2022-10-06T15:34:27.244Z,7.00
2022-10-06T15:36:55.951Z,7.77
2022-10-06T15:39:25.031Z,6.47
2022-10-06T15:41:52.372Z,10.80
2022-10-06T15:44:20.147Z,6.40
2022-10-06T15:46:49.453Z,9.60
2022-10-06T15:49:21.406Z,6.20
2022-10-06T15:51:53.173Z,4.73
2022-10-06T15:54:25.652Z,5.80
2022-10-06T15:56:54.639Z,6.13
2022-10-06T15:59:24.497Z,4.17
2022-10-06T16:01:55.758Z,4.67
2022-10-06T16:04:29.043Z,5.70
2022-10-06T16:06:56.161Z,6.73
2022-10-06T16:09:31.154Z,6.23
2022-10-06T16:11:59.307Z,4.13
2022-10-06T16:14:26.425Z,6.40
2022-10-06T16:16:53.920Z,6.17
2022-10-06T16:19:20.667Z,6.00
2022-10-06T16:21:49.174Z,5.03
2022-10-06T16:24:17.711Z,8.07
2022-10-06T16:26:46.872Z,6.50
2022-10-06T16:29:14.751Z,7.13
2022-10-06T16:31:41.652Z,5.43
2022-10-06T16:34:08.845Z,5.30
2022-10-06T16:36:37.210Z,4.73
2022-10-06T16:39:06.212Z,7.10
2022-10-06T16:41:33.594Z,10.03
2022-10-06T16:44:00.325Z,7.13
2022-10-06T16:46:29.678Z,14.77
2022-10-06T16:48:58.393Z,7.97
2022-10-06T16:51:39.518Z,9.10
2022-10-06T16:54:09.103Z,6.77
2022-10-06T16:56:44.592Z,6.17
2022-10-06T16:59:16.310Z,10.90
2022-10-06T17:01:44.004Z,11.10
2022-10-06T17:04:17.557Z,13.80
2022-10-06T17:06:52.625Z,23.97
2022-10-06T17:09:21.591Z,20.13
2022-10-06T17:11:53.201Z,19.57
2022-10-06T17:14:21.335Z,25.50
2022-10-06T17:16:50.691Z,24.70
2022-10-06T17:19:18.960Z,22.17
2022-10-06T17:21:47.695Z,15.30
2022-10-06T17:24:17.700Z,13.93
2022-10-06T17:26:47.301Z,23.67
2022-10-06T17:29:22.111Z,21.13
2022-10-06T17:31:53.261Z,11.93
2022-10-06T17:34:23.575Z,13.60
2022-10-06T17:36:52.106Z,13.00
2022-10-06T17:39:24.306Z,13.67
2022-10-06T17:41:53.079Z,11.60
2022-10-06T17:44:23.782Z,13.20
2022-10-06T17:46:53.774Z,7.67
2022-10-06T17:49:21.931Z,12.07
2022-10-06T17:51:49.665Z,12.80
2022-10-06T17:54:19.806Z,12.37
2022-10-06T17:56:51.997Z,15.03
2022-10-06T17:59:30.526Z,13.83
2022-10-06T18:01:59.675Z,10.90
2022-10-06T18:04:27.005Z,12.10
2022-10-06T18:06:54.713Z,11.43
2022-10-06T18:09:21.747Z,10.10
2022-10-06T18:11:54.466Z,10.57
2022-10-06T18:14:23.206Z,12.63
2022-10-06T18:16:56.955Z,11.00
2022-10-06T18:19:26.228Z,16.30
2022-10-06T18:21:56.298Z,8.87
2022-10-06T18:24:25.837Z,7.30
2022-10-06T18:26:54.363Z,10.97
2022-10-06T18:29:27.906Z,10.73
2022-10-06T18:31:55.575Z,14.73
2022-10-06T18:37:09.544Z,13.17
2022-10-06T18:39:36.184Z,25.93
2022-10-06T18:42:05.215Z,23.00
2022-10-06T18:44:50.571Z,21.43
2022-10-06T18:47:35.976Z,11.43
2022-10-06T18:50:02.704Z,14.03
2022-10-06T18:52:29.351Z,13.90
2022-10-06T18:54:55.968Z,20.83
2022-10-06T18:57:27.751Z,26.10
2022-10-06T18:59:55.025Z,29.67
2022-10-06T19:02:21.775Z,31.30
2022-10-06T19:04:48.457Z,32.47
2022-10-06T19:07:15.146Z,33.93
2022-10-06T19:09:46.667Z,34.13
2022-10-06T19:12:14.272Z,32.40
2022-10-06T19:14:47.159Z,38.47
2022-10-06T19:17:15.056Z,29.53
2022-10-06T19:19:51.004Z,29.80
2022-10-06T19:22:19.015Z,30.63
2022-10-06T19:24:48.284Z,36.27
2022-10-06T19:27:20.335Z,36.00
2022-10-06T19:29:54.730Z,28.47
2022-10-06T19:32:24.488Z,28.27
2022-10-06T19:34:51.419Z,27.57
2022-10-06T19:37:18.159Z,32.80
2022-10-06T19:39:46.999Z,32.00
2022-10-06T19:42:36.606Z,38.40
2022-10-06T19:45:04.754Z,31.43
2022-10-06T19:47:31.844Z,29.20
2022-10-06T19:50:02.841Z,34.80
2022-10-06T19:52:31.358Z,30.60
2022-10-06T19:54:58.456Z,39.50
2022-10-06T19:57:27.334Z,41.90
2022-10-06T19:59:53.965Z,50.63
2022-10-06T20:02:20.704Z,31.23
2022-10-06T20:04:47.405Z,24.80
2022-10-06T20:07:14.050Z,26.77
2022-10-06T20:09:41.003Z,29.77
2022-10-06T20:12:07.715Z,33.47
2022-10-06T20:14:34.727Z,39.17
2022-10-06T20:17:02.622Z,43.43
2022-10-06T20:19:29.352Z,47.70
2022-10-06T20:21:56.036Z,33.87
2022-10-06T20:24:24.878Z,30.27
2022-10-06T20:26:53.060Z,27.63
2022-10-06T20:29:22.869Z,22.40
2022-10-06T20:31:55.643Z,27.93
2022-10-06T20:34:24.852Z,23.53
2022-10-06T20:36:56.003Z,29.87
2022-10-06T20:39:42.526Z,19.93
2022-10-06T20:42:14.977Z,22.43
2022-10-06T20:44:43.411Z,27.63
2022-10-06T20:47:11.502Z,34.40
2022-10-06T20:49:38.535Z,29.53
2022-10-06T20:52:06.114Z,29.93
2022-10-06T20:54:45.655Z,17.07
2022-10-06T20:57:12.953Z,22.27
2022-10-06T20:59:39.666Z,24.83
2022-10-06T21:02:06.820Z,23.40
2022-10-06T21:04:34.930Z,26.47
2022-10-06T21:07:04.046Z,25.17
2022-10-06T21:09:31.056Z,22.03
2022-10-06T21:11:57.912Z,21.60
2022-10-06T21:14:24.995Z,19.70
2022-10-06T21:16:52.502Z,22.50
2022-10-06T21:19:19.944Z,22.57
2022-10-06T21:21:52.283Z,21.97
2022-10-06T21:24:20.416Z,15.43
2022-10-06T21:26:48.027Z,19.60
2022-10-06T21:29:15.610Z,17.07
2022-10-06T21:31:43.429Z,15.47
2022-10-06T21:34:10.627Z,16.43
2022-10-06T21:36:37.890Z,19.43
2022-10-06T21:39:06.001Z,16.70
2022-10-06T21:41:38.895Z,17.17
2022-10-06T21:44:17.571Z,18.03
2022-10-06T21:46:53.280Z,21.30
2022-10-06T21:49:24.752Z,18.37
2022-10-06T21:51:53.825Z,20.40
2022-10-06T21:54:21.778Z,21.80
2022-10-06T21:56:49.299Z,19.77
2022-10-06T21:59:16.265Z,19.80
2022-10-06T22:01:44.737Z,19.83
2022-10-06T22:04:14.219Z,18.00
2022-10-06T22:06:42.329Z,13.27
2022-10-06T22:09:13.305Z,17.07
2022-10-06T22:11:41.510Z,13.90
2022-10-06T22:14:11.853Z,19.20
2022-10-06T22:16:39.307Z,17.03
2022-10-06T22:19:08.438Z,17.97
2022-10-06T22:21:40.766Z,14.03
2022-10-06T22:24:13.107Z,13.87
2022-10-06T22:26:41.360Z,13.67
2022-10-06T22:29:10.983Z,14.70
2022-10-06T22:31:40.063Z,13.20
2022-10-06T22:34:08.080Z,15.00
2022-10-06T22:36:35.168Z,14.47
2022-10-06T22:39:02.710Z,13.70
2022-10-06T22:41:30.125Z,12.87
2022-10-06T22:43:58.751Z,14.13
2022-10-06T22:46:33.490Z,16.33
2022-10-06T22:49:00.482Z,13.50
2022-10-06T22:51:27.823Z,14.40
2022-10-06T22:53:58.161Z,17.03
2022-10-06T22:56:26.926Z,16.63
2022-10-06T22:58:53.813Z,12.43
2022-10-06T23:01:20.970Z,14.80
2022-10-06T23:03:48.217Z,14.40
2022-10-06T23:06:17.196Z,17.97
2022-10-06T23:08:44.659Z,13.17
2022-10-06T23:11:17.806Z,11.17
2022-10-06T23:13:44.990Z,16.83
2022-10-06T23:16:17.074Z,15.57
2022-10-06T23:18:45.235Z,13.50
2022-10-06T23:21:24.411Z,11.73
2022-10-06T23:23:54.573Z,13.30
2022-10-06T23:26:22.630Z,11.17
2022-10-06T23:29:00.495Z,9.60
2022-10-06T23:31:29.101Z,10.77
2022-10-06T23:33:56.021Z,9.73
2022-10-06T23:36:22.958Z,17.80
2022-10-06T23:38:50.122Z,7.30
2022-10-06T23:41:16.999Z,10.97
2022-10-06T23:43:44.174Z,9.63
2022-10-06T23:46:11.823Z,11.90
2022-10-06T23:48:38.754Z,12.17
2022-10-06T23:51:11.624Z,10.13
2022-10-06T23:53:38.847Z,7.80
2022-10-06T23:56:06.228Z,10.50
2022-10-06T23:58:33.402Z,7.80
